PWSweather.com
Personal Weather Stations
Station Observations
IHTIMAN1
Neighbourhood 1, IhtimanBG 2050

Neighbourhood 1IhtimanBG 2050

Lat: 42.436852, Lon: 23.817921

Elevation: 2066

Station Type: Oregon Scientific WMR968

http://ihtiman-meteo.com

High Low Average
Temperature 48.0°F8.9°C 34.0°F1.1°C 37.7°F3.2°C
Dew Point 35.3°F1.8°C 22.7°F-5.2°C 29.4°F-1.4°C
Winds 12.1 mph 19.5 kmh Calm Calm 6.0 mph W9.7 kmh W
Wind Gusts 19.2 mph30.9 kmh -- 8.0 mph12.9 kmh
Humidity 93% 50% 73%
Pressure 30.00 in1015.9 mb 29.77 in1008.1 mb -
Precipitation 0.05 in1.3 mm - -
Hour Temp Dew Point Humidity Winds Wind Gusts Pressure Precip Precip Rate Daily Precip Total
12:00 AM 35.4°F1.9°C 31.4°F-0.3°C 85% 4.5 mph NNW7.2 kmh NNW 6.3 mph10.1 kmh 29.82 in1009.8 mb - 0.00 in0.0 mm 0.00 in0.0 mm
12:10 AM 35.2°F1.8°C 31.2°F-0.4°C 85% 6.0 mph N9.7 kmh N 8.0 mph12.9 kmh 29.82 in1009.8 mb - 0.00 in0.0 mm 0.00 in0.0 mm
12:20 AM 35.1°F1.7°C 31.0°F-0.6°C 85% 4.1 mph N6.6 kmh N 6.3 mph10.1 kmh 29.82 in1009.8 mb - 0.00 in0.0 mm 0.00 in0.0 mm
12:30 AM 34.9°F1.6°C 30.8°F-0.7°C 85% 4.3 mph NNE6.9 kmh NNE 4.9 mph7.9 kmh 29.82 in1009.8 mb - 0.00 in0.0 mm 0.00 in0.0 mm
12:40 AM 35.1°F1.7°C 31.0°F-0.6°C 85% 3.2 mph N5.1 kmh N 6.3 mph10.1 kmh 29.82 in1009.8 mb - 0.00 in0.0 mm 0.00 in0.0 mm
12:50 AM 35.1°F1.7°C 31.0°F-0.6°C 85% 3.8 mph N6.1 kmh N 6.3 mph10.1 kmh 29.80 in1009.1 mb - 0.00 in0.0 mm 0.00 in0.0 mm
01:00 AM 35.1°F1.7°C 31.0°F-0.6°C 85% 5.0 mph N8.0 kmh N 7.6 mph12.2 kmh 29.80 in1009.1 mb - 0.00 in0.0 mm 0.00 in0.0 mm
01:10 AM 35.1°F1.7°C 31.0°F-0.6°C 85% 4.2 mph N6.8 kmh N 8.0 mph12.9 kmh 29.80 in1009.1 mb - 0.00 in0.0 mm 0.00 in0.0 mm
01:20 AM 35.1°F1.7°C 31.0°F-0.6°C 85% 2.5 mph N4.0 kmh N 3.6 mph5.8 kmh 29.80 in1009.1 mb - 0.00 in0.0 mm 0.00 in0.0 mm
01:30 AM 35.1°F1.7°C 31.0°F-0.6°C 85% 3.8 mph N6.1 kmh N 8.3 mph13.4 kmh 29.80 in1009.1 mb - 0.00 in0.0 mm 0.00 in0.0 mm
01:40 AM 35.1°F1.7°C 31.3°F-0.4°C 86% 5.1 mph N8.2 kmh N 11.8 mph19.0 kmh 29.80 in1009.1 mb - 0.00 in0.0 mm 0.00 in0.0 mm
01:50 AM 34.9°F1.6°C 31.1°F-0.5°C 86% 5.3 mph N8.5 kmh N 10.5 mph16.9 kmh 29.80 in1009.1 mb - 0.00 in0.0 mm 0.00 in0.0 mm
02:00 AM 34.9°F1.6°C 31.1°F-0.5°C 86% 3.7 mph NNE6.0 kmh NNE 10.5 mph16.9 kmh 29.80 in1009.1 mb - 0.00 in0.0 mm 0.00 in0.0 mm
02:10 AM 34.7°F1.5°C 30.9°F-0.6°C 86% 6.2 mph NNW10.0 kmh NNW 10.1 mph16.3 kmh 29.82 in1009.8 mb - 0.00 in0.0 mm 0.00 in0.0 mm
02:20 AM 34.5°F1.4°C 30.8°F-0.7°C 86% 5.4 mph N8.7 kmh N 8.7 mph14.0 kmh 29.80 in1009.1 mb - 0.00 in0.0 mm 0.00 in0.0 mm
02:30 AM 34.5°F1.4°C 30.8°F-0.7°C 86% 5.1 mph N8.2 kmh N 6.3 mph10.1 kmh 29.80 in1009.1 mb - 0.00 in0.0 mm 0.00 in0.0 mm
02:40 AM 34.5°F1.4°C 30.8°F-0.7°C 86% 6.0 mph N9.7 kmh N 8.0 mph12.9 kmh 29.80 in1009.1 mb - 0.00 in0.0 mm 0.00 in0.0 mm
02:50 AM 34.5°F1.4°C 31.0°F-0.6°C 87% 4.9 mph N7.9 kmh N 7.6 mph12.2 kmh 29.80 in1009.1 mb - 0.00 in0.0 mm 0.00 in0.0 mm
03:00 AM 34.5°F1.4°C 31.0°F-0.6°C 87% 5.5 mph N8.9 kmh N 8.0 mph12.9 kmh 29.80 in1009.1 mb - 0.00 in0.0 mm 0.00 in0.0 mm
03:10 AM 34.5°F1.4°C 31.0°F-0.6°C 87% 6.0 mph NNW9.7 kmh NNW 9.2 mph14.8 kmh 29.80 in1009.1 mb - 0.00 in0.0 mm 0.00 in0.0 mm
03:20 AM 34.5°F1.4°C 31.0°F-0.6°C 87% 5.7 mph N9.2 kmh N 7.6 mph12.2 kmh 29.80 in1009.1 mb - 0.00 in0.0 mm 0.00 in0.0 mm
03:30 AM 34.5°F1.4°C 31.0°F-0.6°C 87% 5.2 mph NNW8.4 kmh NNW 8.0 mph12.9 kmh 29.80 in1009.1 mb - 0.00 in0.0 mm 0.00 in0.0 mm
03:40 AM 34.7°F1.5°C 31.2°F-0.4°C 87% 2.4 mph 3.9 kmh 3.6 mph5.8 kmh 29.80 in1009.1 mb - 0.00 in0.0 mm 0.00 in0.0 mm
03:50 AM 34.7°F1.5°C 31.2°F-0.4°C 87% 2.9 mph N4.7 kmh N 5.8 mph9.3 kmh 29.80 in1009.1 mb - 0.00 in0.0 mm 0.00 in0.0 mm
04:00 AM 34.9°F1.6°C 31.4°F-0.3°C 87% 3.6 mph N5.8 kmh N 6.3 mph10.1 kmh 29.79 in1008.8 mb - 0.00 in0.0 mm 0.00 in0.0 mm
04:10 AM 34.9°F1.6°C 31.4°F-0.3°C 87% 5.5 mph N8.9 kmh N 8.7 mph14.0 kmh 29.77 in1008.1 mb - 0.00 in0.0 mm 0.00 in0.0 mm
04:20 AM 34.7°F1.5°C 31.2°F-0.4°C 87% 4.9 mph 7.9 kmh 6.3 mph10.1 kmh 29.77 in1008.1 mb - 0.00 in0.0 mm 0.00 in0.0 mm
04:30 AM 34.7°F1.5°C 31.2°F-0.4°C 87% Calm Calm 2.7 mph4.3 kmh 29.77 in1008.1 mb - 0.00 in0.0 mm 0.00 in0.0 mm
04:40 AM 34.9°F1.6°C 31.4°F-0.3°C 87% 0.9 mph N1.4 kmh N 4.0 mph6.4 kmh 29.80 in1009.1 mb - 0.00 in0.0 mm 0.00 in0.0 mm
04:50 AM 34.9°F1.6°C 31.4°F-0.3°C 87% 3.4 mph NNW5.5 kmh NNW 4.9 mph7.9 kmh 29.80 in1009.1 mb - 0.00 in0.0 mm 0.00 in0.0 mm
05:00 AM 34.9°F1.6°C 31.4°F-0.3°C 87% 3.1 mph NNW5.0 kmh NNW 6.3 mph10.1 kmh 29.80 in1009.1 mb - 0.00 in0.0 mm 0.00 in0.0 mm
05:10 AM 34.9°F1.6°C 31.4°F-0.3°C 87% 2.2 mph N3.5 kmh N 3.1 mph5.0 kmh 29.80 in1009.1 mb - 0.00 in0.0 mm 0.00 in0.0 mm
05:20 AM 34.9°F1.6°C 31.4°F-0.3°C 87% 1.8 mph N2.9 kmh N 4.0 mph6.4 kmh 29.80 in1009.1 mb - 0.00 in0.0 mm 0.00 in0.0 mm
05:30 AM 34.9°F1.6°C 31.4°F-0.3°C 87% Calm Calm 4.9 mph7.9 kmh 29.80 in1009.1 mb - 0.00 in0.0 mm 0.00 in0.0 mm
05:40 AM 35.1°F1.7°C 31.6°F-0.2°C 87% Calm Calm -- 29.80 in1009.1 mb - 0.00 in0.0 mm 0.00 in0.0 mm
05:50 AM 35.1°F1.7°C 31.6°F-0.2°C 87% 1.2 mph NNW1.9 kmh NNW 3.1 mph5.0 kmh 29.80 in1009.1 mb - 0.00 in0.0 mm 0.00 in0.0 mm
06:00 AM 35.2°F1.8°C 31.8°F-0.1°C 87% 1.0 mph NW1.6 kmh NW 4.0 mph6.4 kmh 29.80 in1009.1 mb - 0.00 in0.0 mm 0.00 in0.0 mm
06:10 AM 35.4°F1.9°C 31.9°F-0.1°C 87% 3.7 mph WNW6.0 kmh WNW 5.8 mph9.3 kmh 29.80 in1009.1 mb - 0.00 in0.0 mm 0.00 in0.0 mm
06:20 AM 35.4°F1.9°C 31.9°F-0.1°C 87% 3.1 mph N5.0 kmh N 4.0 mph6.4 kmh 29.80 in1009.1 mb - 0.00 in0.0 mm 0.00 in0.0 mm
06:30 AM 35.4°F1.9°C 31.9°F-0.1°C 87% 3.1 mph N5.0 kmh N 4.0 mph6.4 kmh 29.80 in1009.1 mb - 0.00 in0.0 mm 0.00 in0.0 mm
06:40 AM 35.4°F1.9°C 31.9°F-0.1°C 87% 3.1 mph NNW5.0 kmh NNW 5.4 mph8.7 kmh 29.80 in1009.1 mb - 0.00 in0.0 mm 0.00 in0.0 mm
06:50 AM 35.4°F1.9°C 31.9°F-0.1°C 87% Calm Calm 2.7 mph4.3 kmh 29.80 in1009.1 mb - 0.00 in0.0 mm 0.00 in0.0 mm
07:00 AM 35.4°F1.9°C 31.9°F-0.1°C 87% 4.1 mph NW6.6 kmh NW 6.7 mph10.8 kmh 29.80 in1009.1 mb - 0.00 in0.0 mm 0.00 in0.0 mm
07:10 AM 35.4°F1.9°C 31.9°F-0.1°C 87% 2.9 mph NNW4.7 kmh NNW 3.6 mph5.8 kmh 29.80 in1009.1 mb - 0.00 in0.0 mm 0.00 in0.0 mm
07:20 AM 35.4°F1.9°C 31.9°F-0.1°C 87% 4.0 mph N6.4 kmh N 5.4 mph8.7 kmh 29.80 in1009.1 mb - 0.00 in0.0 mm 0.00 in0.0 mm
07:30 AM 35.6°F2.0°C 31.8°F-0.1°C 86% 2.8 mph N4.5 kmh N 6.3 mph10.1 kmh 29.80 in1009.1 mb - 0.00 in0.0 mm 0.00 in0.0 mm
07:40 AM 35.6°F2.0°C 31.8°F-0.1°C 86% 3.7 mph NNW6.0 kmh NNW 6.3 mph10.1 kmh 29.80 in1009.1 mb - 0.00 in0.0 mm 0.00 in0.0 mm
07:50 AM 35.8°F2.1°C 32.3°F0.2°C 87% 4.8 mph N7.7 kmh N 6.3 mph10.1 kmh 29.80 in1009.1 mb - 0.00 in0.0 mm 0.00 in0.0 mm
08:00 AM 36.1°F2.3°C 32.9°F0.5°C 88% 6.5 mph N10.5 kmh N 6.3 mph10.1 kmh 29.79 in1008.8 mb - 0.00 in0.0 mm 0.00 in0.0 mm
08:10 AM 36.5°F2.5°C 33.6°F0.9°C 89% 5.3 mph N8.5 kmh N 8.0 mph12.9 kmh 29.77 in1008.1 mb - 0.00 in0.0 mm 0.00 in0.0 mm
08:20 AM 36.3°F2.4°C 33.1°F0.6°C 88% 7.7 mph NNW12.4 kmh NNW 10.1 mph16.3 kmh 29.80 in1009.1 mb - 0.00 in0.0 mm 0.00 in0.0 mm
08:30 AM 36.1°F2.3°C 32.6°F0.3°C 87% 5.9 mph NNW9.5 kmh NNW 10.9 mph17.5 kmh 29.80 in1009.1 mb - 0.00 in0.0 mm 0.00 in0.0 mm
08:40 AM 36.1°F2.3°C 32.6°F0.3°C 87% 6.0 mph NW9.7 kmh NW 10.1 mph16.3 kmh 29.80 in1009.1 mb - 0.00 in0.0 mm 0.00 in0.0 mm
08:50 AM 35.4°F1.9°C 31.9°F-0.1°C 87% 5.2 mph NW8.4 kmh NW 7.6 mph12.2 kmh 29.80 in1009.1 mb - 0.00 in0.0 mm 0.00 in0.0 mm
09:00 AM 34.9°F1.6°C 31.4°F-0.3°C 87% 3.8 mph NW6.1 kmh NW 4.0 mph6.4 kmh 29.80 in1009.1 mb - 0.05 in1.3 mm 0.05 in1.3 mm
09:10 AM 34.7°F1.5°C 31.5°F-0.3°C 88% 3.1 mph WNW5.0 kmh WNW 4.9 mph7.9 kmh 29.80 in1009.1 mb - 0.05 in1.3 mm 0.05 in1.3 mm
09:20 AM 34.7°F1.5°C 31.8°F-0.1°C 89% 3.7 mph NW6.0 kmh NW 6.3 mph10.1 kmh 29.80 in1009.1 mb - 0.00 in0.0 mm 0.05 in1.3 mm
09:30 AM 35.2°F1.8°C 32.9°F0.5°C 91% 3.5 mph NW5.6 kmh NW 4.0 mph6.4 kmh 29.80 in1009.1 mb - 0.00 in0.0 mm 0.05 in1.3 mm
09:40 AM 35.7°F2.1°C 33.6°F0.9°C 92% 2.7 mph W4.3 kmh W 5.4 mph8.7 kmh 29.80 in1009.1 mb - 0.00 in0.0 mm 0.05 in1.3 mm
09:50 AM 36.1°F2.3°C 34.3°F1.3°C 93% 5.3 mph WNW8.5 kmh WNW 5.8 mph9.3 kmh 29.80 in1009.1 mb - 0.00 in0.0 mm 0.05 in1.3 mm
10:00 AM 36.3°F2.4°C 34.2°F1.2°C 92% 6.2 mph WNW10.0 kmh WNW 10.9 mph17.5 kmh 29.80 in1009.1 mb - 0.00 in0.0 mm 0.05 in1.3 mm
10:10 AM 36.8°F2.7°C 34.5°F1.4°C 91% 7.5 mph NW12.1 kmh NW 8.7 mph14.0 kmh 29.80 in1009.1 mb - 0.00 in0.0 mm 0.05 in1.3 mm
10:20 AM 38.0°F3.3°C 35.3°F1.8°C 90% 5.6 mph NNW9.0 kmh NNW 5.8 mph9.3 kmh 29.80 in1009.1 mb - 0.00 in0.0 mm 0.05 in1.3 mm
10:30 AM 38.8°F3.8°C 34.3°F1.3°C 84% 7.2 mph NW11.6 kmh NW 10.5 mph16.9 kmh 29.80 in1009.1 mb - 0.00 in0.0 mm 0.05 in1.3 mm
10:40 AM 39.0°F3.9°C 33.4°F0.8°C 80% 5.7 mph NW9.2 kmh NW 8.7 mph14.0 kmh 29.80 in1009.1 mb - 0.00 in0.0 mm 0.05 in1.3 mm
10:50 AM 39.4°F4.1°C 34.0°F1.1°C 81% 7.4 mph WNW11.9 kmh WNW 8.7 mph14.0 kmh 29.80 in1009.1 mb - 0.00 in0.0 mm 0.05 in1.3 mm
11:00 AM 40.3°F4.6°C 34.0°F1.1°C 78% 7.4 mph NW11.9 kmh NW 10.1 mph16.3 kmh 29.80 in1009.1 mb - 0.00 in0.0 mm 0.05 in1.3 mm
11:10 AM 40.5°F4.7°C 32.5°F0.3°C 73% 8.1 mph W13.0 kmh W 12.3 mph19.8 kmh 29.80 in1009.1 mb - 0.00 in0.0 mm 0.05 in1.3 mm
11:20 AM 41.4°F5.2°C 32.3°F0.2°C 70% 6.7 mph NW10.8 kmh NW 8.3 mph13.4 kmh 29.80 in1009.1 mb - 0.00 in0.0 mm 0.05 in1.3 mm
11:30 AM 41.2°F5.1°C 31.5°F-0.3°C 68% 5.9 mph NW9.5 kmh NW 8.0 mph12.9 kmh 29.80 in1009.1 mb - 0.00 in0.0 mm 0.05 in1.3 mm
11:40 AM 43.2°F6.2°C 32.6°F0.3°C 66% 8.8 mph NNW14.2 kmh NNW 15.0 mph24.1 kmh 29.80 in1009.1 mb - 0.00 in0.0 mm 0.05 in1.3 mm
11:50 AM 45.0°F7.2°C 33.6°F0.9°C 64% 9.4 mph WNW15.1 kmh WNW 15.4 mph24.8 kmh 29.80 in1009.1 mb - 0.00 in0.0 mm 0.05 in1.3 mm
12:00 PM 45.9°F7.7°C 33.2°F0.7°C 61% 7.3 mph WNW11.7 kmh WNW 8.3 mph13.4 kmh 29.80 in1009.1 mb - 0.00 in0.0 mm 0.05 in1.3 mm
12:10 PM 46.6°F8.1°C 33.0°F0.6°C 59% 7.9 mph NNW12.7 kmh NNW 8.0 mph12.9 kmh 29.80 in1009.1 mb - 0.00 in0.0 mm 0.05 in1.3 mm
12:20 PM 46.6°F8.1°C 31.3°F-0.4°C 55% 7.1 mph NNW11.4 kmh NNW 10.5 mph16.9 kmh 29.80 in1009.1 mb - 0.00 in0.0 mm 0.05 in1.3 mm
12:30 PM 46.2°F7.9°C 33.1°F0.6°C 60% 6.0 mph N9.7 kmh N 8.7 mph14.0 kmh 29.80 in1009.1 mb - 0.00 in0.0 mm 0.05 in1.3 mm
12:40 PM 46.8°F8.2°C 32.3°F0.2°C 57% 6.3 mph NNW10.1 kmh NNW 10.9 mph17.5 kmh 29.80 in1009.1 mb - 0.00 in0.0 mm 0.05 in1.3 mm
12:50 PM 45.5°F7.5°C 31.1°F-0.5°C 57% 7.0 mph NW11.3 kmh NW 10.9 mph17.5 kmh 29.80 in1009.1 mb - 0.00 in0.0 mm 0.05 in1.3 mm
01:00 PM 46.0°F7.8°C 30.7°F-0.7°C 55% 7.4 mph N11.9 kmh N 11.4 mph18.3 kmh 29.80 in1009.1 mb - 0.00 in0.0 mm 0.05 in1.3 mm
01:10 PM 46.3°F7.9°C 29.2°F-1.6°C 51% 9.1 mph NNE14.6 kmh NNE 12.3 mph19.8 kmh 29.80 in1009.1 mb - 0.00 in0.0 mm 0.05 in1.3 mm
01:20 PM 45.1°F7.3°C 28.5°F-1.9°C 52% 9.2 mph N14.8 kmh N 13.2 mph21.2 kmh 29.80 in1009.1 mb - 0.00 in0.0 mm 0.05 in1.3 mm
01:30 PM 45.2°F7.3°C 30.0°F-1.1°C 55% 7.7 mph NW12.4 kmh NW 10.1 mph16.3 kmh 29.80 in1009.1 mb - 0.00 in0.0 mm 0.05 in1.3 mm
01:40 PM 47.1°F8.4°C 29.4°F-1.4°C 50% 11.5 mph NW18.5 kmh NW 13.2 mph21.2 kmh 29.80 in1009.1 mb - 0.00 in0.0 mm 0.05 in1.3 mm
01:50 PM 48.0°F8.9°C 30.3°F-0.9°C 50% 10.1 mph N16.3 kmh N 12.3 mph19.8 kmh 29.80 in1009.1 mb - 0.00 in0.0 mm 0.05 in1.3 mm
02:00 PM 45.6°F7.6°C 28.5°F-1.9°C 51% 8.9 mph NNW14.3 kmh NNW 10.5 mph16.9 kmh 29.80 in1009.1 mb - 0.00 in0.0 mm 0.05 in1.3 mm
02:10 PM 45.3°F7.4°C 28.7°F-1.8°C 52% 6.8 mph NW10.9 kmh NW 12.3 mph19.8 kmh 29.82 in1009.8 mb - 0.00 in0.0 mm 0.05 in1.3 mm
02:20 PM 44.4°F6.9°C 27.9°F-2.3°C 52% 10.2 mph NW16.4 kmh NW 12.7 mph20.4 kmh 29.82 in1009.8 mb - 0.00 in0.0 mm 0.05 in1.3 mm
02:30 PM 43.5°F6.4°C 27.0°F-2.8°C 52% 9.3 mph NW15.0 kmh NW 15.0 mph24.1 kmh 29.82 in1009.8 mb - 0.00 in0.0 mm 0.05 in1.3 mm
02:40 PM 42.4°F5.8°C 27.0°F-2.8°C 54% 8.8 mph NW14.2 kmh NW 11.8 mph19.0 kmh 29.82 in1009.8 mb - 0.00 in0.0 mm 0.05 in1.3 mm
02:50 PM 40.7°F4.8°C 29.1°F-1.6°C 63% 9.0 mph NW14.5 kmh NW 8.7 mph14.0 kmh 29.82 in1009.8 mb - 0.00 in0.0 mm 0.05 in1.3 mm
03:00 PM 40.3°F4.6°C 29.4°F-1.4°C 65% 5.4 mph NW8.7 kmh NW 10.1 mph16.3 kmh 29.82 in1009.8 mb - 0.00 in0.0 mm 0.05 in1.3 mm
03:10 PM 39.9°F4.4°C 29.1°F-1.6°C 65% 10.1 mph NW16.3 kmh NW 10.5 mph16.9 kmh 29.82 in1009.8 mb - 0.00 in0.0 mm 0.05 in1.3 mm
03:20 PM 39.2°F4.0°C 29.9°F-1.2°C 69% 8.0 mph NW12.9 kmh NW 8.7 mph14.0 kmh 29.86 in1011.2 mb - 0.00 in0.0 mm 0.05 in1.3 mm
03:30 PM 40.4°F4.7°C 34.4°F1.3°C 79% 3.9 mph W6.3 kmh W 5.4 mph8.7 kmh 29.86 in1011.2 mb - 0.00 in0.0 mm 0.05 in1.3 mm
03:40 PM 43.0°F6.1°C 34.9°F1.6°C 73% 3.7 mph SW6.0 kmh SW 4.9 mph7.9 kmh 29.82 in1009.8 mb - 0.00 in0.0 mm 0.05 in1.3 mm
03:50 PM 42.1°F5.6°C 33.0°F0.6°C 70% 3.9 mph W6.3 kmh W 10.1 mph16.3 kmh 29.82 in1009.8 mb - 0.00 in0.0 mm 0.05 in1.3 mm
04:00 PM 40.4°F4.7°C 31.1°F-0.5°C 69% 9.3 mph NW15.0 kmh NW 10.1 mph16.3 kmh 29.83 in1010.2 mb - 0.00 in0.0 mm 0.05 in1.3 mm
04:10 PM 39.4°F4.1°C 31.5°F-0.3°C 73% 5.8 mph W9.3 kmh W 8.3 mph13.4 kmh 29.86 in1011.2 mb - 0.00 in0.0 mm 0.05 in1.3 mm
04:20 PM 42.5°F5.8°C 34.5°F1.4°C 73% 3.1 mph WNW5.0 kmh WNW 6.3 mph10.1 kmh 29.82 in1009.8 mb - 0.00 in0.0 mm 0.05 in1.3 mm
04:30 PM 42.9°F6.1°C 31.5°F-0.3°C 64% 6.5 mph N10.5 kmh N 8.0 mph12.9 kmh 29.82 in1009.8 mb - 0.00 in0.0 mm 0.05 in1.3 mm
04:40 PM 41.6°F5.3°C 30.0°F-1.1°C 63% 8.1 mph NNW13.0 kmh NNW 8.7 mph14.0 kmh 29.82 in1009.8 mb - 0.00 in0.0 mm 0.05 in1.3 mm
04:50 PM 40.8°F4.9°C 28.8°F-1.8°C 62% 11.3 mph N18.2 kmh N 19.2 mph30.9 kmh 29.86 in1011.2 mb - 0.00 in0.0 mm 0.05 in1.3 mm
05:00 PM 40.3°F4.6°C 28.3°F-2.1°C 62% 7.9 mph NW12.7 kmh NW 8.3 mph13.4 kmh 29.85 in1010.8 mb - 0.00 in0.0 mm 0.05 in1.3 mm
05:10 PM 40.5°F4.7°C 28.1°F-2.2°C 61% 12.1 mph NNW19.5 kmh NNW 15.4 mph24.8 kmh 29.82 in1009.8 mb - 0.00 in0.0 mm 0.05 in1.3 mm
05:20 PM 40.5°F4.7°C 27.7°F-2.4°C 60% 11.2 mph NW18.0 kmh NW 15.0 mph24.1 kmh 29.86 in1011.2 mb - 0.00 in0.0 mm 0.05 in1.3 mm
05:30 PM 40.1°F4.5°C 27.7°F-2.4°C 61% 7.8 mph NW12.6 kmh NW 13.2 mph21.2 kmh 29.86 in1011.2 mb - 0.00 in0.0 mm 0.05 in1.3 mm
05:40 PM 40.5°F4.7°C 27.7°F-2.4°C 60% 10.8 mph NW17.4 kmh NW 12.7 mph20.4 kmh 29.86 in1011.2 mb - 0.00 in0.0 mm 0.05 in1.3 mm
05:50 PM 40.5°F4.7°C 26.4°F-3.1°C 57% 9.5 mph NNW15.3 kmh NNW 10.9 mph17.5 kmh 29.88 in1011.9 mb - 0.00 in0.0 mm 0.05 in1.3 mm
06:00 PM 40.6°F4.8°C 25.7°F-3.5°C 55% 10.0 mph NW16.1 kmh NW 11.8 mph19.0 kmh 29.88 in1011.9 mb - 0.00 in0.0 mm 0.05 in1.3 mm
06:10 PM 40.3°F4.6°C 25.4°F-3.7°C 55% 8.5 mph NW13.7 kmh NW 10.9 mph17.5 kmh 29.88 in1011.9 mb - 0.00 in0.0 mm 0.05 in1.3 mm
06:20 PM 39.9°F4.4°C 25.5°F-3.6°C 56% 6.9 mph WNW11.1 kmh WNW 12.3 mph19.8 kmh 29.88 in1011.9 mb - 0.00 in0.0 mm 0.05 in1.3 mm
06:30 PM 39.7°F4.3°C 25.3°F-3.7°C 56% 8.3 mph NW13.4 kmh NW 10.9 mph17.5 kmh 29.89 in1012.2 mb - 0.00 in0.0 mm 0.05 in1.3 mm
06:40 PM 39.4°F4.1°C 25.0°F-3.9°C 56% 5.7 mph NW9.2 kmh NW 7.6 mph12.2 kmh 29.91 in1012.9 mb - 0.00 in0.0 mm 0.05 in1.3 mm
06:50 PM 38.8°F3.8°C 24.5°F-4.2°C 56% 6.9 mph WNW11.1 kmh WNW 10.5 mph16.9 kmh 29.91 in1012.9 mb - 0.00 in0.0 mm 0.05 in1.3 mm
07:00 PM 38.5°F3.6°C 24.1°F-4.4°C 56% 6.6 mph NNW10.6 kmh NNW 10.9 mph17.5 kmh 29.91 in1012.9 mb - 0.00 in0.0 mm 0.05 in1.3 mm
07:10 PM 37.9°F3.3°C 23.6°F-4.7°C 56% 3.4 mph WNW5.5 kmh WNW 5.8 mph9.3 kmh 29.91 in1012.9 mb - 0.00 in0.0 mm 0.05 in1.3 mm
07:20 PM 37.5°F3.1°C 23.7°F-4.6°C 57% 4.9 mph NNW7.9 kmh NNW 8.0 mph12.9 kmh 29.91 in1012.9 mb - 0.00 in0.0 mm 0.05 in1.3 mm
07:30 PM 37.0°F2.8°C 23.6°F-4.7°C 58% 4.5 mph NNW7.2 kmh NNW 5.8 mph9.3 kmh 29.91 in1012.9 mb - 0.00 in0.0 mm 0.05 in1.3 mm
07:40 PM 36.7°F2.6°C 23.7°F-4.6°C 59% 5.5 mph NW8.9 kmh NW 5.8 mph9.3 kmh 29.94 in1013.9 mb - 0.00 in0.0 mm 0.05 in1.3 mm
07:50 PM 36.3°F2.4°C 23.3°F-4.8°C 59% 3.6 mph NW5.8 kmh NW 5.4 mph8.7 kmh 29.94 in1013.9 mb - 0.00 in0.0 mm 0.05 in1.3 mm
08:00 PM 35.8°F2.1°C 23.2°F-4.9°C 60% 6.1 mph NW9.8 kmh NW 10.5 mph16.9 kmh 29.94 in1013.9 mb - 0.00 in0.0 mm 0.05 in1.3 mm
08:10 PM 35.4°F1.9°C 22.9°F-5.1°C 60% 4.1 mph WNW6.6 kmh WNW 5.8 mph9.3 kmh 29.94 in1013.9 mb - 0.00 in0.0 mm 0.05 in1.3 mm
08:20 PM 35.1°F1.7°C 23.0°F-5.0°C 61% 5.1 mph NW8.2 kmh NW 9.2 mph14.8 kmh 29.94 in1013.9 mb - 0.00 in0.0 mm 0.05 in1.3 mm
08:30 PM 34.9°F1.6°C 23.2°F-4.9°C 62% 5.4 mph NNW8.7 kmh NNW 8.7 mph14.0 kmh 29.95 in1014.2 mb - 0.00 in0.0 mm 0.05 in1.3 mm
08:40 PM 34.9°F1.6°C 23.2°F-4.9°C 62% 5.8 mph NW9.3 kmh NW 8.3 mph13.4 kmh 29.97 in1014.9 mb - 0.00 in0.0 mm 0.05 in1.3 mm
08:50 PM 34.9°F1.6°C 23.2°F-4.9°C 62% 6.3 mph NW10.1 kmh NW 6.3 mph10.1 kmh 29.97 in1014.9 mb - 0.00 in0.0 mm 0.05 in1.3 mm
09:00 PM 34.7°F1.5°C 23.0°F-5.0°C 62% 3.8 mph N6.1 kmh N 6.3 mph10.1 kmh 29.97 in1014.9 mb - 0.00 in0.0 mm 0.05 in1.3 mm
09:10 PM 34.7°F1.5°C 23.4°F-4.8°C 63% 5.9 mph NW9.5 kmh NW 5.4 mph8.7 kmh 29.97 in1014.9 mb - 0.00 in0.0 mm 0.05 in1.3 mm
09:20 PM 34.7°F1.5°C 23.4°F-4.8°C 63% 5.5 mph NW8.9 kmh NW 10.1 mph16.3 kmh 29.97 in1014.9 mb - 0.00 in0.0 mm 0.05 in1.3 mm
09:30 PM 34.7°F1.5°C 23.4°F-4.8°C 63% 3.1 mph NW5.0 kmh NW 4.0 mph6.4 kmh 29.97 in1014.9 mb - 0.00 in0.0 mm 0.05 in1.3 mm
09:40 PM 34.5°F1.4°C 23.2°F-4.9°C 63% 2.9 mph NW4.7 kmh NW 3.6 mph5.8 kmh 29.97 in1014.9 mb - 0.00 in0.0 mm 0.05 in1.3 mm
09:50 PM 34.3°F1.3°C 23.0°F-5.0°C 63% 3.0 mph W4.8 kmh W 5.4 mph8.7 kmh 30.00 in1015.9 mb - 0.00 in0.0 mm 0.05 in1.3 mm
10:00 PM 34.2°F1.2°C 22.9°F-5.1°C 63% 0.5 mph N0.8 kmh N 4.0 mph6.4 kmh 30.00 in1015.9 mb - 0.00 in0.0 mm 0.05 in1.3 mm
10:10 PM 34.0°F1.1°C 22.7°F-5.2°C 63% 8.1 mph NNW13.0 kmh NNW 10.1 mph16.3 kmh 30.00 in1015.9 mb - 0.00 in0.0 mm 0.05 in1.3 mm
10:20 PM 34.0°F1.1°C 23.1°F-4.9°C 64% 6.5 mph NNW10.5 kmh NNW 7.2 mph11.6 kmh 30.00 in1015.9 mb - 0.00 in0.0 mm 0.05 in1.3 mm
10:30 PM 34.0°F1.1°C 23.1°F-4.9°C 64% 4.2 mph N6.8 kmh N 5.4 mph8.7 kmh 30.00 in1015.9 mb - 0.00 in0.0 mm 0.05 in1.3 mm
10:40 PM 34.0°F1.1°C 23.1°F-4.9°C 64% 4.1 mph N6.6 kmh N 4.0 mph6.4 kmh 30.00 in1015.9 mb - 0.00 in0.0 mm 0.05 in1.3 mm
10:50 PM 34.0°F1.1°C 23.1°F-4.9°C 64% 5.3 mph N8.5 kmh N 8.3 mph13.4 kmh 30.00 in1015.9 mb - 0.00 in0.0 mm 0.05 in1.3 mm
11:00 PM 34.1°F1.2°C 23.6°F-4.7°C 65% 3.8 mph N6.1 kmh N 7.6 mph12.2 kmh 30.00 in1015.9 mb - 0.00 in0.0 mm 0.10 in2.5 mm
11:10 PM 34.3°F1.3°C 23.8°F-4.6°C 65% 6.3 mph NW10.1 kmh NW 8.3 mph13.4 kmh 29.97 in1014.9 mb - 0.00 in0.0 mm 0.10 in2.5 mm
11:20 PM 34.5°F1.4°C 24.0°F-4.4°C 65% 4.7 mph NW7.6 kmh NW 7.6 mph12.2 kmh 29.97 in1014.9 mb - 0.00 in0.0 mm 0.10 in2.5 mm
11:30 PM 34.7°F1.5°C 24.1°F-4.4°C 65% 4.7 mph N7.6 kmh N 7.2 mph11.6 kmh 29.97 in1014.9 mb - 0.00 in0.0 mm 0.10 in2.5 mm
11:40 PM 34.5°F1.4°C 24.0°F-4.4°C 65% 5.6 mph NNE9.0 kmh NNE 7.6 mph12.2 kmh 30.00 in1015.9 mb - 0.00 in0.0 mm 0.10 in2.5 mm
11:50 PM 34.5°F1.4°C 24.0°F-4.4°C 65% 6.4 mph NW10.3 kmh NW 8.3 mph13.4 kmh 29.97 in1014.9 mb - 0.00 in0.0 mm 0.10 in2.5 mm